sensor_id;sensor_type;location;lat;lon;timestamp;P1;durP1;ratioP1;P2;durP2;ratioP2
72388;SDS011;60566;48.062;9.930;2022-07-23T00:00:48;14.48;;;8.50;;
72388;SDS011;60566;48.062;9.930;2022-07-23T00:03:14;15.45;;;8.57;;
72388;SDS011;60566;48.062;9.930;2022-07-23T00:05:40;12.55;;;8.43;;
72388;SDS011;60566;48.062;9.930;2022-07-23T00:08:06;13.27;;;8.68;;
72388;SDS011;60566;48.062;9.930;2022-07-23T00:10:31;15.93;;;8.90;;
72388;SDS011;60566;48.062;9.930;2022-07-23T00:12:57;15.00;;;8.55;;
72388;SDS011;60566;48.062;9.930;2022-07-23T00:15:22;13.30;;;8.80;;
72388;SDS011;60566;48.062;9.930;2022-07-23T00:17:48;15.88;;;8.65;;
72388;SDS011;60566;48.062;9.930;2022-07-23T00:20:14;15.18;;;8.52;;
72388;SDS011;60566;48.062;9.930;2022-07-23T00:22:45;13.07;;;8.38;;
72388;SDS011;60566;48.062;9.930;2022-07-23T00:25:11;13.88;;;8.25;;
72388;SDS011;60566;48.062;9.930;2022-07-23T00:27:36;13.38;;;8.80;;
72388;SDS011;60566;48.062;9.930;2022-07-23T00:30:02;14.27;;;8.45;;
72388;SDS011;60566;48.062;9.930;2022-07-23T00:32:27;12.75;;;8.55;;
72388;SDS011;60566;48.062;9.930;2022-07-23T00:34:53;16.52;;;9.00;;
72388;SDS011;60566;48.062;9.930;2022-07-23T00:37:19;14.82;;;8.82;;
72388;SDS011;60566;48.062;9.930;2022-07-23T00:39:45;12.25;;;8.27;;
72388;SDS011;60566;48.062;9.930;2022-07-23T00:42:10;18.00;;;9.07;;
72388;SDS011;60566;48.062;9.930;2022-07-23T00:44:35;14.43;;;8.45;;
72388;SDS011;60566;48.062;9.930;2022-07-23T00:47:01;13.82;;;7.78;;
72388;SDS011;60566;48.062;9.930;2022-07-23T00:49:27;15.90;;;8.77;;
72388;SDS011;60566;48.062;9.930;2022-07-23T00:51:53;18.73;;;8.77;;
72388;SDS011;60566;48.062;9.930;2022-07-23T00:54:21;13.07;;;8.98;;
72388;SDS011;60566;48.062;9.930;2022-07-23T00:56:47;13.52;;;8.90;;
72388;SDS011;60566;48.062;9.930;2022-07-23T00:59:12;15.10;;;8.82;;
72388;SDS011;60566;48.062;9.930;2022-07-23T01:01:38;19.33;;;8.93;;
72388;SDS011;60566;48.062;9.930;2022-07-23T01:04:04;13.52;;;8.52;;
72388;SDS011;60566;48.062;9.930;2022-07-23T01:06:30;13.75;;;9.05;;
72388;SDS011;60566;48.062;9.930;2022-07-23T01:08:56;16.85;;;9.38;;
72388;SDS011;60566;48.062;9.930;2022-07-23T01:11:23;15.93;;;9.43;;
72388;SDS011;60566;48.062;9.930;2022-07-23T01:13:49;14.52;;;8.27;;
72388;SDS011;60566;48.062;9.930;2022-07-23T01:16:15;14.90;;;8.88;;
72388;SDS011;60566;48.062;9.930;2022-07-23T01:18:40;14.75;;;8.52;;
72388;SDS011;60566;48.062;9.930;2022-07-23T01:21:06;17.15;;;8.85;;
72388;SDS011;60566;48.062;9.930;2022-07-23T01:23:33;13.55;;;8.30;;
72388;SDS011;60566;48.062;9.930;2022-07-23T01:25:58;14.75;;;8.88;;
72388;SDS011;60566;48.062;9.930;2022-07-23T01:28:24;15.60;;;8.73;;
72388;SDS011;60566;48.062;9.930;2022-07-23T01:30:49;13.30;;;7.90;;
72388;SDS011;60566;48.062;9.930;2022-07-23T01:33:15;13.60;;;8.20;;
72388;SDS011;60566;48.062;9.930;2022-07-23T01:35:40;14.07;;;8.95;;
72388;SDS011;60566;48.062;9.930;2022-07-23T01:38:05;14.52;;;8.48;;
72388;SDS011;60566;48.062;9.930;2022-07-23T01:40:32;14.45;;;8.02;;
72388;SDS011;60566;48.062;9.930;2022-07-23T01:42:58;16.60;;;9.10;;
72388;SDS011;60566;48.062;9.930;2022-07-23T01:45:23;12.02;;;8.07;;
72388;SDS011;60566;48.062;9.930;2022-07-23T01:47:48;14.25;;;8.40;;
72388;SDS011;60566;48.062;9.930;2022-07-23T01:50:14;12.75;;;8.35;;
72388;SDS011;60566;48.062;9.930;2022-07-23T01:52:39;13.98;;;7.50;;
72388;SDS011;60566;48.062;9.930;2022-07-23T01:55:05;14.23;;;7.95;;
72388;SDS011;60566;48.062;9.930;2022-07-23T01:57:33;14.35;;;8.15;;
72388;SDS011;60566;48.062;9.930;2022-07-23T01:59:58;13.60;;;8.00;;
72388;SDS011;60566;48.062;9.930;2022-07-23T02:02:24;13.98;;;8.60;;
72388;SDS011;60566;48.062;9.930;2022-07-23T02:04:49;12.43;;;8.10;;
72388;SDS011;60566;48.062;9.930;2022-07-23T02:07:14;13.25;;;7.63;;
72388;SDS011;60566;48.062;9.930;2022-07-23T02:09:40;14.43;;;7.57;;
72388;SDS011;60566;48.062;9.930;2022-07-23T02:12:05;12.05;;;7.78;;
72388;SDS011;60566;48.062;9.930;2022-07-23T02:14:32;12.57;;;7.18;;
72388;SDS011;60566;48.062;9.930;2022-07-23T02:16:58;10.75;;;7.35;;
72388;SDS011;60566;48.062;9.930;2022-07-23T02:19:23;11.70;;;7.10;;
72388;SDS011;60566;48.062;9.930;2022-07-23T02:21:48;11.43;;;7.38;;
72388;SDS011;60566;48.062;9.930;2022-07-23T02:24:14;11.93;;;7.15;;
72388;SDS011;60566;48.062;9.930;2022-07-23T02:26:39;11.52;;;7.25;;
72388;SDS011;60566;48.062;9.930;2022-07-23T02:29:05;11.40;;;7.22;;
72388;SDS011;60566;48.062;9.930;2022-07-23T02:31:32;12.70;;;7.68;;
72388;SDS011;60566;48.062;9.930;2022-07-23T02:33:57;11.82;;;6.88;;
72388;SDS011;60566;48.062;9.930;2022-07-23T02:36:23;12.35;;;7.20;;
72388;SDS011;60566;48.062;9.930;2022-07-23T02:38:48;10.70;;;6.75;;
72388;SDS011;60566;48.062;9.930;2022-07-23T02:41:14;11.88;;;7.07;;
72388;SDS011;60566;48.062;9.930;2022-07-23T02:43:39;12.90;;;6.72;;
72388;SDS011;60566;48.062;9.930;2022-07-23T02:46:04;12.57;;;7.13;;
72388;SDS011;60566;48.062;9.930;2022-07-23T02:48:31;11.38;;;7.32;;
72388;SDS011;60566;48.062;9.930;2022-07-23T02:50:56;9.88;;;7.13;;
72388;SDS011;60566;48.062;9.930;2022-07-23T02:53:22;10.80;;;6.78;;
72388;SDS011;60566;48.062;9.930;2022-07-23T02:55:47;9.90;;;6.70;;
72388;SDS011;60566;48.062;9.930;2022-07-23T02:58:13;12.02;;;6.47;;
72388;SDS011;60566;48.062;9.930;2022-07-23T03:00:38;11.73;;;6.25;;
72388;SDS011;60566;48.062;9.930;2022-07-23T03:03:03;11.02;;;6.90;;
72388;SDS011;60566;48.062;9.930;2022-07-23T03:05:30;11.82;;;6.28;;
72388;SDS011;60566;48.062;9.930;2022-07-23T03:07:55;14.05;;;6.13;;
72388;SDS011;60566;48.062;9.930;2022-07-23T03:10:21;13.82;;;6.80;;
72388;SDS011;60566;48.062;9.930;2022-07-23T03:12:46;13.52;;;6.28;;
72388;SDS011;60566;48.062;9.930;2022-07-23T03:15:12;12.57;;;7.00;;
72388;SDS011;60566;48.062;9.930;2022-07-23T03:17:37;11.27;;;6.05;;
72388;SDS011;60566;48.062;9.930;2022-07-23T03:20:03;9.77;;;5.85;;
72388;SDS011;60566;48.062;9.930;2022-07-23T03:22:30;11.52;;;5.97;;
72388;SDS011;60566;48.062;9.930;2022-07-23T03:24:55;10.15;;;5.95;;
72388;SDS011;60566;48.062;9.930;2022-07-23T03:27:21;9.25;;;5.30;;
72388;SDS011;60566;48.062;9.930;2022-07-23T03:29:46;8.05;;;5.30;;
72388;SDS011;60566;48.062;9.930;2022-07-23T03:32:11;8.05;;;4.97;;
72388;SDS011;60566;48.062;9.930;2022-07-23T03:34:37;8.90;;;4.90;;
72388;SDS011;60566;48.062;9.930;2022-07-23T03:37:03;6.95;;;4.45;;
72388;SDS011;60566;48.062;9.930;2022-07-23T03:39:29;8.55;;;4.53;;
72388;SDS011;60566;48.062;9.930;2022-07-23T03:41:55;7.68;;;4.70;;
72388;SDS011;60566;48.062;9.930;2022-07-23T03:44:20;7.78;;;4.70;;
72388;SDS011;60566;48.062;9.930;2022-07-23T03:46:46;8.43;;;4.70;;
72388;SDS011;60566;48.062;9.930;2022-07-23T03:49:11;8.15;;;4.65;;
72388;SDS011;60566;48.062;9.930;2022-07-23T03:51:36;7.65;;;4.68;;
72388;SDS011;60566;48.062;9.930;2022-07-23T03:54:02;10.15;;;5.18;;
72388;SDS011;60566;48.062;9.930;2022-07-23T03:56:30;8.40;;;4.50;;
72388;SDS011;60566;48.062;9.930;2022-07-23T03:58:55;9.02;;;4.88;;
72388;SDS011;60566;48.062;9.930;2022-07-23T04:01:21;7.13;;;4.68;;
72388;SDS011;60566;48.062;9.930;2022-07-23T04:03:46;8.57;;;5.43;;
72388;SDS011;60566;48.062;9.930;2022-07-23T04:06:11;9.27;;;4.85;;
72388;SDS011;60566;48.062;9.930;2022-07-23T04:08:37;10.55;;;5.25;;
72388;SDS011;60566;48.062;9.930;2022-07-23T04:11:02;10.25;;;5.35;;
72388;SDS011;60566;48.062;9.930;2022-07-23T04:13:29;8.27;;;5.35;;
72388;SDS011;60566;48.062;9.930;2022-07-23T04:15:54;9.68;;;5.68;;
72388;SDS011;60566;48.062;9.930;2022-07-23T04:18:20;11.68;;;5.13;;
72388;SDS011;60566;48.062;9.930;2022-07-23T04:20:45;9.68;;;5.70;;
72388;SDS011;60566;48.062;9.930;2022-07-23T04:23:11;9.02;;;5.47;;
72388;SDS011;60566;48.062;9.930;2022-07-23T04:25:36;9.88;;;5.85;;
72388;SDS011;60566;48.062;9.930;2022-07-23T04:28:01;10.23;;;6.70;;
72388;SDS011;60566;48.062;9.930;2022-07-23T04:30:28;9.15;;;5.80;;
72388;SDS011;60566;48.062;9.930;2022-07-23T04:32:54;9.70;;;5.82;;
72388;SDS011;60566;48.062;9.930;2022-07-23T04:35:19;10.10;;;5.63;;
72388;SDS011;60566;48.062;9.930;2022-07-23T04:37:45;9.13;;;6.32;;
72388;SDS011;60566;48.062;9.930;2022-07-23T04:40:11;12.07;;;5.85;;
72388;SDS011;60566;48.062;9.930;2022-07-23T04:42:37;10.90;;;5.90;;
72388;SDS011;60566;48.062;9.930;2022-07-23T04:45:03;10.02;;;6.05;;
72388;SDS011;60566;48.062;9.930;2022-07-23T04:47:30;12.68;;;6.30;;
72388;SDS011;60566;48.062;9.930;2022-07-23T04:49:55;10.13;;;6.18;;
72388;SDS011;60566;48.062;9.930;2022-07-23T04:52:21;10.38;;;6.28;;
72388;SDS011;60566;48.062;9.930;2022-07-23T04:54:46;9.30;;;5.88;;
72388;SDS011;60566;48.062;9.930;2022-07-23T04:57:12;12.25;;;6.63;;
72388;SDS011;60566;48.062;9.930;2022-07-23T04:59:37;12.38;;;6.60;;
72388;SDS011;60566;48.062;9.930;2022-07-23T05:02:03;10.60;;;6.75;;
72388;SDS011;60566;48.062;9.930;2022-07-23T05:04:29;11.68;;;6.70;;
72388;SDS011;60566;48.062;9.930;2022-07-23T05:06:55;12.40;;;6.57;;
72388;SDS011;60566;48.062;9.930;2022-07-23T05:09:20;10.98;;;6.55;;
72388;SDS011;60566;48.062;9.930;2022-07-23T05:11:45;11.43;;;6.80;;
72388;SDS011;60566;48.062;9.930;2022-07-23T05:14:11;11.15;;;6.07;;
72388;SDS011;60566;48.062;9.930;2022-07-23T05:16:36;12.52;;;6.40;;
72388;SDS011;60566;48.062;9.930;2022-07-23T05:19:02;12.88;;;6.70;;
72388;SDS011;60566;48.062;9.930;2022-07-23T05:21:28;13.00;;;6.82;;
72388;SDS011;60566;48.062;9.930;2022-07-23T05:23:54;11.75;;;6.65;;
72388;SDS011;60566;48.062;9.930;2022-07-23T05:26:19;12.18;;;6.90;;
72388;SDS011;60566;48.062;9.930;2022-07-23T05:28:45;12.23;;;7.00;;
72388;SDS011;60566;48.062;9.930;2022-07-23T05:31:10;12.10;;;6.60;;
72388;SDS011;60566;48.062;9.930;2022-07-23T05:33:35;12.10;;;5.30;;
72388;SDS011;60566;48.062;9.930;2022-07-23T05:36:01;9.65;;;5.72;;
72388;SDS011;60566;48.062;9.930;2022-07-23T05:38:28;8.70;;;5.85;;
72388;SDS011;60566;48.062;9.930;2022-07-23T05:40:54;12.07;;;6.93;;
72388;SDS011;60566;48.062;9.930;2022-07-23T05:43:19;12.30;;;6.63;;
72388;SDS011;60566;48.062;9.930;2022-07-23T05:45:44;14.00;;;7.07;;
72388;SDS011;60566;48.062;9.930;2022-07-23T05:48:10;12.35;;;6.90;;
72388;SDS011;60566;48.062;9.930;2022-07-23T05:50:35;12.77;;;6.85;;
72388;SDS011;60566;48.062;9.930;2022-07-23T05:53:01;13.05;;;7.35;;
72388;SDS011;60566;48.062;9.930;2022-07-23T05:55:27;13.00;;;7.18;;
72388;SDS011;60566;48.062;9.930;2022-07-23T05:57:53;14.60;;;7.80;;
72388;SDS011;60566;48.062;9.930;2022-07-23T06:00:18;11.75;;;6.35;;
72388;SDS011;60566;48.062;9.930;2022-07-23T06:02:44;13.73;;;7.15;;
72388;SDS011;60566;48.062;9.930;2022-07-23T06:05:09;12.40;;;7.47;;
72388;SDS011;60566;48.062;9.930;2022-07-23T06:07:35;11.85;;;7.10;;
72388;SDS011;60566;48.062;9.930;2022-07-23T06:10:01;15.35;;;7.57;;
72388;SDS011;60566;48.062;9.930;2022-07-23T06:12:27;16.08;;;7.57;;
72388;SDS011;60566;48.062;9.930;2022-07-23T06:14:53;13.27;;;7.38;;
72388;SDS011;60566;48.062;9.930;2022-07-23T06:17:18;14.30;;;7.95;;
72388;SDS011;60566;48.062;9.930;2022-07-23T06:19:44;13.00;;;6.93;;
72388;SDS011;60566;48.062;9.930;2022-07-23T06:22:09;11.90;;;7.63;;
72388;SDS011;60566;48.062;9.930;2022-07-23T06:24:34;17.50;;;7.82;;
72388;SDS011;60566;48.062;9.930;2022-07-23T06:27:00;17.10;;;7.75;;
72388;SDS011;60566;48.062;9.930;2022-07-23T06:29:27;13.50;;;7.10;;
72388;SDS011;60566;48.062;9.930;2022-07-23T06:31:52;16.77;;;8.82;;
72388;SDS011;60566;48.062;9.930;2022-07-23T06:34:17;13.65;;;7.65;;
72388;SDS011;60566;48.062;9.930;2022-07-23T06:36:43;13.75;;;7.90;;
72388;SDS011;60566;48.062;9.930;2022-07-23T06:39:08;12.52;;;7.47;;
72388;SDS011;60566;48.062;9.930;2022-07-23T06:41:33;12.30;;;7.47;;
72388;SDS011;60566;48.062;9.930;2022-07-23T06:43:59;10.60;;;6.50;;
72388;SDS011;60566;48.062;9.930;2022-07-23T06:46:26;13.35;;;6.88;;
72388;SDS011;60566;48.062;9.930;2022-07-23T06:48:51;11.82;;;7.05;;
72388;SDS011;60566;48.062;9.930;2022-07-23T06:51:16;11.07;;;6.72;;
72388;SDS011;60566;48.062;9.930;2022-07-23T06:53:42;11.98;;;7.65;;
72388;SDS011;60566;48.062;9.930;2022-07-23T06:56:07;14.07;;;7.80;;
72388;SDS011;60566;48.062;9.930;2022-07-23T06:58:33;13.18;;;7.68;;
72388;SDS011;60566;48.062;9.930;2022-07-23T07:00:58;13.00;;;7.35;;
72388;SDS011;60566;48.062;9.930;2022-07-23T07:03:25;13.95;;;7.40;;
72388;SDS011;60566;48.062;9.930;2022-07-23T07:05:50;13.57;;;8.10;;
72388;SDS011;60566;48.062;9.930;2022-07-23T07:08:16;15.35;;;7.35;;
72388;SDS011;60566;48.062;9.930;2022-07-23T07:10:41;15.35;;;8.65;;
72388;SDS011;60566;48.062;9.930;2022-07-23T07:13:06;14.52;;;7.90;;
72388;SDS011;60566;48.062;9.930;2022-07-23T07:15:32;13.20;;;7.97;;
72388;SDS011;60566;48.062;9.930;2022-07-23T07:17:58;16.60;;;8.82;;
72388;SDS011;60566;48.062;9.930;2022-07-23T07:20:25;14.75;;;8.45;;
72388;SDS011;60566;48.062;9.930;2022-07-23T07:22:50;11.38;;;7.05;;
72388;SDS011;60566;48.062;9.930;2022-07-23T07:25:15;12.23;;;7.70;;
72388;SDS011;60566;48.062;9.930;2022-07-23T07:27:41;13.40;;;8.45;;
72388;SDS011;60566;48.062;9.930;2022-07-23T07:30:07;15.27;;;8.18;;
72388;SDS011;60566;48.062;9.930;2022-07-23T07:32:33;12.77;;;7.95;;
72388;SDS011;60566;48.062;9.930;2022-07-23T07:34:58;12.85;;;7.90;;
72388;SDS011;60566;48.062;9.930;2022-07-23T07:37:25;14.15;;;8.05;;
72388;SDS011;60566;48.062;9.930;2022-07-23T07:39:51;15.85;;;7.75;;
72388;SDS011;60566;48.062;9.930;2022-07-23T07:42:16;13.82;;;7.68;;
72388;SDS011;60566;48.062;9.930;2022-07-23T07:44:41;12.73;;;8.25;;
72388;SDS011;60566;48.062;9.930;2022-07-23T07:47:07;15.77;;;8.27;;
72388;SDS011;60566;48.062;9.930;2022-07-23T07:49:32;12.35;;;7.60;;
72388;SDS011;60566;48.062;9.930;2022-07-23T07:51:58;12.82;;;7.75;;
72388;SDS011;60566;48.062;9.930;2022-07-23T07:54:24;14.50;;;9.30;;
72388;SDS011;60566;48.062;9.930;2022-07-23T07:56:50;12.63;;;8.73;;
72388;SDS011;60566;48.062;9.930;2022-07-23T07:59:15;13.68;;;9.35;;
72388;SDS011;60566;48.062;9.930;2022-07-23T08:01:41;13.20;;;9.02;;
72388;SDS011;60566;48.062;9.930;2022-07-23T08:04:07;13.00;;;8.32;;
72388;SDS011;60566;48.062;9.930;2022-07-23T08:06:32;14.77;;;7.82;;
72388;SDS011;60566;48.062;9.930;2022-07-23T08:08:57;13.65;;;7.63;;
72388;SDS011;60566;48.062;9.930;2022-07-23T08:11:24;12.82;;;7.72;;
72388;SDS011;60566;48.062;9.930;2022-07-23T08:13:49;12.63;;;7.72;;
72388;SDS011;60566;48.062;9.930;2022-07-23T08:16:15;10.80;;;7.35;;
72388;SDS011;60566;48.062;9.930;2022-07-23T08:18:40;11.60;;;6.97;;
72388;SDS011;60566;48.062;9.930;2022-07-23T08:21:06;12.90;;;7.57;;
72388;SDS011;60566;48.062;9.930;2022-07-23T08:23:31;11.15;;;6.85;;
72388;SDS011;60566;48.062;9.930;2022-07-23T08:25:56;11.43;;;6.90;;
72388;SDS011;60566;48.062;9.930;2022-07-23T08:28:23;11.07;;;6.43;;
72388;SDS011;60566;48.062;9.930;2022-07-23T08:30:49;11.07;;;6.68;;
72388;SDS011;60566;48.062;9.930;2022-07-23T08:33:15;10.75;;;6.55;;
72388;SDS011;60566;48.062;9.930;2022-07-23T08:35:41;11.05;;;6.60;;
72388;SDS011;60566;48.062;9.930;2022-07-23T08:38:08;13.93;;;6.65;;
72388;SDS011;60566;48.062;9.930;2022-07-23T08:40:35;12.82;;;6.90;;
72388;SDS011;60566;48.062;9.930;2022-07-23T08:43:03;11.15;;;6.72;;
72388;SDS011;60566;48.062;9.930;2022-07-23T08:45:31;11.57;;;7.13;;
72388;SDS011;60566;48.062;9.930;2022-07-23T08:48:01;11.88;;;7.03;;
72388;SDS011;60566;48.062;9.930;2022-07-23T08:50:26;12.15;;;7.53;;
72388;SDS011;60566;48.062;9.930;2022-07-23T08:52:52;13.57;;;7.15;;
72388;SDS011;60566;48.062;9.930;2022-07-23T08:55:18;11.70;;;7.50;;
72388;SDS011;60566;48.062;9.930;2022-07-23T08:57:44;12.25;;;7.65;;
72388;SDS011;60566;48.062;9.930;2022-07-23T09:00:13;12.98;;;8.10;;
72388;SDS011;60566;48.062;9.930;2022-07-23T09:02:41;14.68;;;8.43;;
72388;SDS011;60566;48.062;9.930;2022-07-23T09:05:07;13.40;;;8.10;;
72388;SDS011;60566;48.062;9.930;2022-07-23T09:07:34;14.45;;;8.38;;
72388;SDS011;60566;48.062;9.930;2022-07-23T09:10:06;12.40;;;7.95;;
72388;SDS011;60566;48.062;9.930;2022-07-23T09:12:32;15.05;;;8.43;;
72388;SDS011;60566;48.062;9.930;2022-07-23T09:14:59;14.20;;;8.52;;
72388;SDS011;60566;48.062;9.930;2022-07-23T09:17:28;13.95;;;8.13;;
72388;SDS011;60566;48.062;9.930;2022-07-23T09:20:08;16.55;;;8.45;;
72388;SDS011;60566;48.062;9.930;2022-07-23T09:22:34;15.95;;;8.93;;
72388;SDS011;60566;48.062;9.930;2022-07-23T09:25:04;13.95;;;8.60;;
72388;SDS011;60566;48.062;9.930;2022-07-23T09:27:47;17.00;;;8.45;;
72388;SDS011;60566;48.062;9.930;2022-07-23T09:30:14;11.88;;;8.50;;
72388;SDS011;60566;48.062;9.930;2022-07-23T09:32:40;13.00;;;8.40;;
72388;SDS011;60566;48.062;9.930;2022-07-23T09:35:06;15.77;;;9.63;;
72388;SDS011;60566;48.062;9.930;2022-07-23T09:37:33;17.67;;;9.00;;
72388;SDS011;60566;48.062;9.930;2022-07-23T09:40:03;14.48;;;8.93;;
72388;SDS011;60566;48.062;9.930;2022-07-23T09:42:30;16.13;;;9.10;;
72388;SDS011;60566;48.062;9.930;2022-07-23T09:44:55;14.50;;;8.60;;
72388;SDS011;60566;48.062;9.930;2022-07-23T09:47:22;13.73;;;8.82;;
72388;SDS011;60566;48.062;9.930;2022-07-23T09:49:59;15.95;;;8.88;;
72388;SDS011;60566;48.062;9.930;2022-07-23T09:52:27;16.77;;;8.82;;
72388;SDS011;60566;48.062;9.930;2022-07-23T09:54:57;15.23;;;8.68;;
72388;SDS011;60566;48.062;9.930;2022-07-23T09:57:23;12.30;;;8.05;;
72388;SDS011;60566;48.062;9.930;2022-07-23T09:59:48;13.37;;;8.20;;
72388;SDS011;60566;48.062;9.930;2022-07-23T10:02:14;13.95;;;9.05;;
72388;SDS011;60566;48.062;9.930;2022-07-23T10:04:39;14.43;;;8.90;;
72388;SDS011;60566;48.062;9.930;2022-07-23T10:07:05;14.65;;;9.18;;
72388;SDS011;60566;48.062;9.930;2022-07-23T10:09:34;13.38;;;8.05;;
72388;SDS011;60566;48.062;9.930;2022-07-23T10:12:01;14.82;;;9.00;;
72388;SDS011;60566;48.062;9.930;2022-07-23T10:14:30;13.50;;;7.53;;
72388;SDS011;60566;48.062;9.930;2022-07-23T10:16:55;13.38;;;9.10;;
72388;SDS011;60566;48.062;9.930;2022-07-23T10:19:21;12.75;;;8.50;;
72388;SDS011;60566;48.062;9.930;2022-07-23T10:21:47;14.15;;;8.63;;
72388;SDS011;60566;48.062;9.930;2022-07-23T10:24:16;13.85;;;9.10;;
72388;SDS011;60566;48.062;9.930;2022-07-23T10:26:50;14.02;;;8.43;;
72388;SDS011;60566;48.062;9.930;2022-07-23T10:29:21;13.18;;;8.95;;
72388;SDS011;60566;48.062;9.930;2022-07-23T10:31:58;15.38;;;9.60;;
72388;SDS011;60566;48.062;9.930;2022-07-23T10:34:29;15.35;;;9.13;;
72388;SDS011;60566;48.062;9.930;2022-07-23T10:37:01;15.10;;;8.43;;
72388;SDS011;60566;48.062;9.930;2022-07-23T10:39:33;14.50;;;9.27;;
72388;SDS011;60566;48.062;9.930;2022-07-23T10:42:10;13.80;;;9.00;;
72388;SDS011;60566;48.062;9.930;2022-07-23T10:44:40;17.00;;;9.25;;
72388;SDS011;60566;48.062;9.930;2022-07-23T10:47:06;13.40;;;8.75;;
72388;SDS011;60566;48.062;9.930;2022-07-23T10:49:32;13.90;;;8.90;;
72388;SDS011;60566;48.062;9.930;2022-07-23T10:54:50;14.25;;;8.82;;
72388;SDS011;60566;48.062;9.930;2022-07-23T10:57:17;14.98;;;9.82;;
72388;SDS011;60566;48.062;9.930;2022-07-23T11:02:35;14.77;;;8.95;;
72388;SDS011;60566;48.062;9.930;2022-07-23T11:05:02;18.30;;;9.70;;
72388;SDS011;60566;48.062;9.930;2022-07-23T11:07:29;13.23;;;8.93;;
72388;SDS011;60566;48.062;9.930;2022-07-23T11:09:54;18.05;;;9.85;;
72388;SDS011;60566;48.062;9.930;2022-07-23T11:12:37;18.40;;;9.48;;
72388;SDS011;60566;48.062;9.930;2022-07-23T11:15:03;15.30;;;9.18;;
72388;SDS011;60566;48.062;9.930;2022-07-23T11:17:31;17.48;;;9.57;;
72388;SDS011;60566;48.062;9.930;2022-07-23T11:22:46;20.33;;;10.40;;
72388;SDS011;60566;48.062;9.930;2022-07-23T11:25:13;15.82;;;8.73;;
72388;SDS011;60566;48.062;9.930;2022-07-23T11:27:41;14.82;;;9.63;;
72388;SDS011;60566;48.062;9.930;2022-07-23T11:34:59;15.63;;;8.55;;
72388;SDS011;60566;48.062;9.930;2022-07-23T11:37:27;17.85;;;8.68;;
72388;SDS011;60566;48.062;9.930;2022-07-23T11:40:00;15.13;;;8.90;;
72388;SDS011;60566;48.062;9.930;2022-07-23T11:42:26;15.57;;;8.85;;
72388;SDS011;60566;48.062;9.930;2022-07-23T11:44:52;13.68;;;8.85;;
72388;SDS011;60566;48.062;9.930;2022-07-23T11:47:21;16.63;;;8.57;;
72388;SDS011;60566;48.062;9.930;2022-07-23T11:49:51;16.63;;;9.15;;
72388;SDS011;60566;48.062;9.930;2022-07-23T11:52:17;14.77;;;9.00;;
72388;SDS011;60566;48.062;9.930;2022-07-23T11:54:46;18.27;;;10.63;;
72388;SDS011;60566;48.062;9.930;2022-07-23T11:57:13;14.52;;;9.18;;
72388;SDS011;60566;48.062;9.930;2022-07-23T11:59:38;13.80;;;9.45;;
72388;SDS011;60566;48.062;9.930;2022-07-23T12:02:06;14.82;;;9.93;;
72388;SDS011;60566;48.062;9.930;2022-07-23T12:04:37;16.05;;;9.68;;
72388;SDS011;60566;48.062;9.930;2022-07-23T12:07:03;15.70;;;10.23;;
72388;SDS011;60566;48.062;9.930;2022-07-23T12:09:28;15.50;;;9.93;;
72388;SDS011;60566;48.062;9.930;2022-07-23T12:11:57;17.45;;;10.10;;
72388;SDS011;60566;48.062;9.930;2022-07-23T12:14:23;15.05;;;10.10;;
72388;SDS011;60566;48.062;9.930;2022-07-23T12:17:00;14.85;;;9.75;;
72388;SDS011;60566;48.062;9.930;2022-07-23T12:19:32;16.15;;;10.05;;
72388;SDS011;60566;48.062;9.930;2022-07-23T12:21:58;14.50;;;9.55;;
72388;SDS011;60566;48.062;9.930;2022-07-23T12:24:24;15.32;;;10.13;;
72388;SDS011;60566;48.062;9.930;2022-07-23T12:29:33;14.82;;;9.45;;
72388;SDS011;60566;48.062;9.930;2022-07-23T12:31:59;17.02;;;9.95;;
72388;SDS011;60566;48.062;9.930;2022-07-23T12:34:26;18.23;;;10.20;;
72388;SDS011;60566;48.062;9.930;2022-07-23T12:36:51;14.68;;;9.40;;
72388;SDS011;60566;48.062;9.930;2022-07-23T12:39:29;17.45;;;10.65;;
72388;SDS011;60566;48.062;9.930;2022-07-23T12:41:54;16.02;;;9.63;;
72388;SDS011;60566;48.062;9.930;2022-07-23T12:44:20;17.60;;;10.15;;
72388;SDS011;60566;48.062;9.930;2022-07-23T12:46:48;15.35;;;10.20;;
72388;SDS011;60566;48.062;9.930;2022-07-23T12:49:23;16.90;;;10.60;;
72388;SDS011;60566;48.062;9.930;2022-07-23T12:51:51;16.55;;;10.45;;
72388;SDS011;60566;48.062;9.930;2022-07-23T12:54:17;18.20;;;10.20;;
72388;SDS011;60566;48.062;9.930;2022-07-23T12:56:44;14.40;;;9.00;;
72388;SDS011;60566;48.062;9.930;2022-07-23T12:59:10;15.43;;;9.70;;
72388;SDS011;60566;48.062;9.930;2022-07-23T13:01:37;15.80;;;9.80;;
72388;SDS011;60566;48.062;9.930;2022-07-23T13:04:03;15.95;;;10.18;;
72388;SDS011;60566;48.062;9.930;2022-07-23T13:06:32;16.85;;;10.45;;
72388;SDS011;60566;48.062;9.930;2022-07-23T13:08:58;15.88;;;10.15;;
72388;SDS011;60566;48.062;9.930;2022-07-23T13:11:24;15.93;;;10.30;;
72388;SDS011;60566;48.062;9.930;2022-07-23T13:13:49;15.98;;;10.25;;
72388;SDS011;60566;48.062;9.930;2022-07-23T13:16:15;17.83;;;10.23;;
72388;SDS011;60566;48.062;9.930;2022-07-23T13:18:40;17.10;;;10.68;;
72388;SDS011;60566;48.062;9.930;2022-07-23T13:21:06;15.95;;;10.55;;
72388;SDS011;60566;48.062;9.930;2022-07-23T13:23:33;14.70;;;10.75;;
72388;SDS011;60566;48.062;9.930;2022-07-23T13:25:58;15.77;;;10.27;;
72388;SDS011;60566;48.062;9.930;2022-07-23T13:28:24;15.02;;;10.63;;
72388;SDS011;60566;48.062;9.930;2022-07-23T13:30:49;14.20;;;9.57;;
72388;SDS011;60566;48.062;9.930;2022-07-23T13:33:16;15.75;;;9.60;;
72388;SDS011;60566;48.062;9.930;2022-07-23T13:40:35;14.13;;;9.43;;
72388;SDS011;60566;48.062;9.930;2022-07-23T13:43:01;17.88;;;9.80;;
72388;SDS011;60566;48.062;9.930;2022-07-23T13:45:26;16.50;;;9.98;;
72388;SDS011;60566;48.062;9.930;2022-07-23T13:47:52;15.52;;;10.20;;
72388;SDS011;60566;48.062;9.930;2022-07-23T13:50:17;14.65;;;9.48;;
72388;SDS011;60566;48.062;9.930;2022-07-23T13:52:43;16.75;;;11.13;;
72388;SDS011;60566;48.062;9.930;2022-07-23T13:55:08;15.82;;;8.93;;
72388;SDS011;60566;48.062;9.930;2022-07-23T13:57:35;13.98;;;9.40;;
72388;SDS011;60566;48.062;9.930;2022-07-23T14:00:00;14.52;;;9.45;;
72388;SDS011;60566;48.062;9.930;2022-07-23T14:02:26;13.90;;;10.38;;
72388;SDS011;60566;48.062;9.930;2022-07-23T14:04:51;15.23;;;10.13;;
72388;SDS011;60566;48.062;9.930;2022-07-23T14:07:18;17.25;;;9.93;;
72388;SDS011;60566;48.062;9.930;2022-07-23T14:09:43;16.17;;;10.43;;
72388;SDS011;60566;48.062;9.930;2022-07-23T14:12:09;16.15;;;10.57;;
72388;SDS011;60566;48.062;9.930;2022-07-23T14:14:35;16.25;;;10.65;;
72388;SDS011;60566;48.062;9.930;2022-07-23T14:17:01;14.55;;;9.85;;
72388;SDS011;60566;48.062;9.930;2022-07-23T14:19:27;16.90;;;11.15;;
72388;SDS011;60566;48.062;9.930;2022-07-23T14:21:52;15.00;;;10.80;;
72388;SDS011;60566;48.062;9.930;2022-07-23T14:24:17;15.57;;;9.73;;
72388;SDS011;60566;48.062;9.930;2022-07-23T14:26:43;15.50;;;10.07;;
72388;SDS011;60566;48.062;9.930;2022-07-23T14:29:08;16.33;;;10.63;;
72388;SDS011;60566;48.062;9.930;2022-07-23T14:31:35;14.35;;;9.35;;
72388;SDS011;60566;48.062;9.930;2022-07-23T14:34:01;14.35;;;9.70;;
72388;SDS011;60566;48.062;9.930;2022-07-23T14:36:26;15.38;;;9.75;;
72388;SDS011;60566;48.062;9.930;2022-07-23T14:38:51;14.80;;;9.82;;
72388;SDS011;60566;48.062;9.930;2022-07-23T14:41:17;16.83;;;10.07;;
72388;SDS011;60566;48.062;9.930;2022-07-23T14:43:43;14.45;;;9.35;;
72388;SDS011;60566;48.062;9.930;2022-07-23T14:46:08;14.98;;;10.43;;
72388;SDS011;60566;48.062;9.930;2022-07-23T14:48:36;14.48;;;9.40;;